createdAt,value
2023-05-06T00:00:38.184Z,11.11
2023-05-06T00:04:42.582Z,11.04
2023-05-06T00:08:46.168Z,10.95
2023-05-06T00:12:49.356Z,10.86
2023-05-06T00:16:52.286Z,10.97
2023-05-06T00:20:56.980Z,10.94
2023-05-06T00:24:59.920Z,10.87
2023-05-06T00:29:02.822Z,10.64
2023-05-06T00:33:05.808Z,10.45
2023-05-06T00:37:11.165Z,10.65
2023-05-06T00:41:14.033Z,10.70
2023-05-06T00:45:16.920Z,10.53
2023-05-06T00:49:20.473Z,10.29
2023-05-06T00:53:24.961Z,10.14
2023-05-06T00:57:28.203Z,10.13
2023-05-06T01:01:31.950Z,10.26
2023-05-06T01:05:39.712Z,10.17
2023-05-06T01:09:48.601Z,9.90
2023-05-06T01:13:53.707Z,9.86
2023-05-06T01:17:59.877Z,10.02
2023-05-06T01:22:03.563Z,9.96
2023-05-06T01:26:08.074Z,9.85
2023-05-06T01:30:11.445Z,9.93
2023-05-06T01:34:17.331Z,9.86
2023-05-06T01:38:25.633Z,9.97
2023-05-06T01:42:31.315Z,9.78
2023-05-06T01:46:34.522Z,9.59
2023-05-06T01:50:37.826Z,9.63
2023-05-06T01:54:40.764Z,9.79
2023-05-06T01:58:45.570Z,9.80
2023-05-06T02:02:48.539Z,9.66
2023-05-06T02:06:51.477Z,9.58
2023-05-06T02:10:56.336Z,9.50
2023-05-06T02:15:00.573Z,9.58
2023-05-06T02:19:03.810Z,9.46
2023-05-06T02:23:06.784Z,9.21
2023-05-06T02:27:09.641Z,9.20
2023-05-06T02:31:15.922Z,9.21
2023-05-06T02:35:18.859Z,9.11
2023-05-06T02:39:21.719Z,9.10
2023-05-06T02:43:33.590Z,8.90
2023-05-06T02:47:54.918Z,9.13
2023-05-06T02:51:58.188Z,9.25
2023-05-06T02:56:01.145Z,9.05
2023-05-06T03:00:06.907Z,8.88
2023-05-06T03:04:09.999Z,8.72
2023-05-06T03:08:13.067Z,8.72
2023-05-06T03:12:16.941Z,8.85
2023-05-06T03:16:21.623Z,8.74
2023-05-06T03:20:28.961Z,8.68
2023-05-06T03:24:33.690Z,8.78
2023-05-06T03:28:39.384Z,8.73
2023-05-06T03:32:44.592Z,8.77
2023-05-06T03:36:51.429Z,8.60
2023-05-06T03:40:55.052Z,8.51
2023-05-06T03:44:58.521Z,8.60
2023-05-06T03:49:04.405Z,8.62
2023-05-06T03:53:07.405Z,8.56
2023-05-06T03:57:12.760Z,8.61
2023-05-06T04:01:17.358Z,8.60
2023-05-06T04:05:22.229Z,8.64
2023-05-06T04:09:25.393Z,8.54
2023-05-06T04:13:29.443Z,8.59
2023-05-06T04:17:35.020Z,8.95
2023-05-06T04:21:39.805Z,8.83
2023-05-06T04:25:49.444Z,8.78
2023-05-06T04:29:54.336Z,8.81
2023-05-06T04:33:57.638Z,8.95
2023-05-06T04:38:03.918Z,8.91
2023-05-06T04:42:07.971Z,9.00
2023-05-06T04:46:21.224Z,8.97
2023-05-06T04:50:24.464Z,9.32
2023-05-06T04:54:30.284Z,9.25
2023-05-06T04:58:33.684Z,9.39
2023-05-06T05:02:37.357Z,9.46
2023-05-06T05:06:41.468Z,9.64
2023-05-06T05:10:45.972Z,9.84
2023-05-06T05:14:53.510Z,9.99
2023-05-06T05:18:56.561Z,10.07
2023-05-06T05:23:03.460Z,10.14
2023-05-06T05:27:08.629Z,10.35
2023-05-06T05:31:12.348Z,10.47
2023-05-06T05:35:16.252Z,10.67
2023-05-06T05:39:20.769Z,10.78
2023-05-06T05:43:27.129Z,10.96
2023-05-06T05:47:31.446Z,11.08
2023-05-06T05:51:34.882Z,11.22
2023-05-06T05:55:40.855Z,11.38
2023-05-06T05:59:45.456Z,11.46
2023-05-06T06:03:48.623Z,11.67
2023-05-06T06:07:51.802Z,11.82
2023-05-06T06:11:55.272Z,11.98
2023-05-06T06:15:59.827Z,12.02
2023-05-06T06:20:04.639Z,12.18
2023-05-06T06:24:07.677Z,12.34
2023-05-06T06:28:10.685Z,12.49
2023-05-06T06:32:16.284Z,12.64
2023-05-06T06:36:19.179Z,12.75
2023-05-06T06:40:22.686Z,13.04
2023-05-06T06:44:25.834Z,13.11
2023-05-06T06:48:30.013Z,13.31
2023-05-06T06:52:32.848Z,13.36
2023-05-06T06:56:35.668Z,13.56
2023-05-06T07:00:38.560Z,13.59
2023-05-06T07:04:42.895Z,13.64
2023-05-06T07:08:45.803Z,13.98
2023-05-06T07:12:48.861Z,14.11
2023-05-06T07:16:51.849Z,14.53
2023-05-06T07:20:56.076Z,14.50
2023-05-06T07:24:59.243Z,14.72
2023-05-06T07:29:02.251Z,14.80
2023-05-06T07:33:05.314Z,14.98
2023-05-06T07:37:09.580Z,15.01
2023-05-06T07:41:12.527Z,15.33
2023-05-06T07:45:15.877Z,15.65
2023-05-06T07:49:18.811Z,15.86
2023-05-06T07:53:23.178Z,15.91
2023-05-06T07:57:26.199Z,16.03
2023-05-06T08:01:30.100Z,16.55
2023-05-06T08:05:33.342Z,16.84
2023-05-06T08:09:37.631Z,18.75
2023-05-06T08:13:40.846Z,19.31
2023-05-06T08:17:43.847Z,19.60
2023-05-06T08:21:46.837Z,18.87
2023-05-06T08:25:51.237Z,18.82
2023-05-06T08:29:54.151Z,19.07
2023-05-06T08:33:57.125Z,19.95
2023-05-06T08:38:00.036Z,20.24
2023-05-06T08:42:04.490Z,19.52
2023-05-06T08:46:07.507Z,20.61
2023-05-06T08:50:11.181Z,21.09
2023-05-06T08:54:15.029Z,21.64
2023-05-06T08:58:19.848Z,22.24
2023-05-06T09:02:23.147Z,21.64
2023-05-06T09:06:27.200Z,20.86
2023-05-06T09:10:32.906Z,21.02
2023-05-06T09:14:37.402Z,22.40
2023-05-06T09:18:40.255Z,21.85
2023-05-06T09:22:43.508Z,21.91
2023-05-06T09:26:47.699Z,21.02
2023-05-06T09:30:52.640Z,22.13
2023-05-06T09:34:55.941Z,21.63
2023-05-06T09:38:58.796Z,23.18
2023-05-06T09:43:02.103Z,23.36
2023-05-06T09:47:06.837Z,21.90
2023-05-06T09:51:09.868Z,22.37
2023-05-06T09:55:13.030Z,23.22
2023-05-06T09:59:18.306Z,21.80
2023-05-06T10:03:23.257Z,23.26
2023-05-06T10:07:28.856Z,23.26
2023-05-06T10:11:32.545Z,23.20
2023-05-06T10:15:35.753Z,22.02
2023-05-06T10:19:41.778Z,24.25
2023-05-06T10:23:45.472Z,23.69
2023-05-06T10:27:48.528Z,23.18
2023-05-06T10:31:55.431Z,22.84
2023-05-06T10:36:10.927Z,20.85
2023-05-06T10:40:14.452Z,22.44
2023-05-06T10:44:17.396Z,22.16
2023-05-06T10:48:20.242Z,22.81
2023-05-06T10:52:24.515Z,21.52
2023-05-06T10:56:27.474Z,22.93
2023-05-06T11:00:33.876Z,23.32
2023-05-06T11:04:37.679Z,23.33
2023-05-06T11:08:42.020Z,24.22
2023-05-06T11:12:45.963Z,24.55
2023-05-06T11:16:49.499Z,23.84
2023-05-06T11:20:52.495Z,25.65
2023-05-06T11:24:57.415Z,24.57
2023-05-06T11:29:01.787Z,26.28
2023-05-06T11:33:05.869Z,25.47
2023-05-06T11:37:09.641Z,26.06
2023-05-06T11:41:13.978Z,26.18
2023-05-06T11:45:16.971Z,27.41
2023-05-06T11:49:19.937Z,27.17
2023-05-06T11:53:23.850Z,26.05
2023-05-06T11:57:28.107Z,24.64
2023-05-06T12:01:30.974Z,25.62
2023-05-06T12:05:34.055Z,23.95
2023-05-06T12:09:37.282Z,25.13
2023-05-06T12:13:41.787Z,25.09
2023-05-06T12:17:44.775Z,24.62
2023-05-06T12:21:47.684Z,25.75
2023-05-06T12:26:01.112Z,23.72
2023-05-06T12:30:09.024Z,22.23
2023-05-06T12:34:12.482Z,23.26
2023-05-06T12:38:16.141Z,23.62
2023-05-06T12:42:20.884Z,23.79
2023-05-06T12:46:25.291Z,23.34
2023-05-06T12:50:38.250Z,24.64
2023-05-06T12:54:41.116Z,23.98
2023-05-06T12:58:43.985Z,23.97
2023-05-06T13:02:48.632Z,25.11
2023-05-06T13:06:51.882Z,24.70
2023-05-06T13:10:54.912Z,22.57
2023-05-06T13:14:57.794Z,22.39
2023-05-06T13:19:02.134Z,21.80
2023-05-06T13:23:05.223Z,21.56
2023-05-06T13:27:08.085Z,21.01
2023-05-06T13:31:11.153Z,20.96
2023-05-06T13:35:15.414Z,20.85
2023-05-06T13:39:18.257Z,20.60
2023-05-06T13:43:21.518Z,20.52
2023-05-06T13:47:25.292Z,20.31
2023-05-06T13:51:35.180Z,19.79
2023-05-06T13:55:38.334Z,19.15
2023-05-06T13:59:41.263Z,17.01
2023-05-06T14:03:44.566Z,15.72
2023-05-06T14:07:48.767Z,15.25
2023-05-06T14:11:51.611Z,15.19
2023-05-06T14:15:55.958Z,15.15
2023-05-06T14:19:58.839Z,15.15
2023-05-06T14:24:04.296Z,15.05
2023-05-06T14:28:09.533Z,15.07
2023-05-06T14:32:12.482Z,15.14
2023-05-06T14:36:19.027Z,15.10
2023-05-06T14:40:23.352Z,15.35
2023-05-06T14:44:26.261Z,15.21
2023-05-06T14:48:29.122Z,15.33
2023-05-06T14:52:31.935Z,15.49
2023-05-06T14:56:36.008Z,15.60
2023-05-06T15:00:40.363Z,15.85
2023-05-06T15:04:43.278Z,15.94
2023-05-06T15:08:46.359Z,15.95
2023-05-06T15:12:49.286Z,15.94
2023-05-06T15:16:54.095Z,15.96
2023-05-06T15:20:58.746Z,15.92
2023-05-06T15:25:03.243Z,16.08
2023-05-06T15:29:06.628Z,16.32
2023-05-06T15:33:10.871Z,16.36
2023-05-06T15:37:15.946Z,16.44
2023-05-06T15:41:18.953Z,16.66
2023-05-06T15:45:21.922Z,16.59
2023-05-06T15:49:51.133Z,16.59
2023-05-06T15:53:49.019Z,16.67
2023-05-06T15:57:53.778Z,16.61
2023-05-06T16:06:03.787Z,16.65
2023-05-06T16:10:07.339Z,16.67
2023-05-06T16:14:10.267Z,16.53
2023-05-06T16:18:13.448Z,16.66
2023-05-06T16:22:17.710Z,16.77
2023-05-06T16:26:20.627Z,16.84
2023-05-06T16:30:24.157Z,17.00
2023-05-06T16:34:27.539Z,17.06
2023-05-06T16:38:31.784Z,16.90
2023-05-06T16:42:34.771Z,16.96
2023-05-06T16:46:37.751Z,16.86
2023-05-06T16:50:40.819Z,16.78
2023-05-06T16:54:45.268Z,16.87
2023-05-06T16:58:48.137Z,16.90
2023-05-06T17:02:51.297Z,17.01
2023-05-06T17:06:55.094Z,16.95
2023-05-06T17:10:59.388Z,16.84
2023-05-06T17:15:02.750Z,16.83
2023-05-06T17:19:05.957Z,16.76
2023-05-06T17:23:08.918Z,16.72
2023-05-06T17:27:13.147Z,16.60
2023-05-06T17:31:16.465Z,16.50
2023-05-06T17:35:20.315Z,16.45
2023-05-06T17:39:23.246Z,16.46
2023-05-06T17:43:27.431Z,16.43
2023-05-06T17:47:30.822Z,16.46
2023-05-06T17:51:33.824Z,16.36
2023-05-06T17:55:36.740Z,16.29
2023-05-06T17:59:41.144Z,16.18
2023-05-06T18:03:45.101Z,16.09
2023-05-06T18:07:48.100Z,15.96
2023-05-06T18:11:51.217Z,15.84
2023-05-06T18:15:55.859Z,15.94
2023-05-06T18:19:59.066Z,15.81
2023-05-06T18:24:15.398Z,15.77
2023-05-06T18:28:19.291Z,15.82
2023-05-06T18:32:23.560Z,15.74
2023-05-06T18:36:27.032Z,15.77
2023-05-06T18:40:29.922Z,15.74
2023-05-06T18:44:32.827Z,15.66
2023-05-06T18:48:37.161Z,15.53
2023-05-06T18:52:40.148Z,15.37
2023-05-06T18:56:43.654Z,15.16
2023-05-06T19:00:46.946Z,15.09
2023-05-06T19:04:51.223Z,15.26
2023-05-06T19:08:54.658Z,15.28
2023-05-06T19:12:57.613Z,15.24
2023-05-06T19:17:00.633Z,15.33
2023-05-06T19:21:05.031Z,15.35
2023-05-06T19:25:08.652Z,15.26
2023-05-06T19:29:11.781Z,15.26
2023-05-06T19:33:14.652Z,15.16
2023-05-06T19:37:18.969Z,15.20
2023-05-06T19:41:21.832Z,15.17
2023-05-06T19:45:24.978Z,15.26
2023-05-06T19:49:27.862Z,15.17
2023-05-06T19:53:32.198Z,15.06
2023-05-06T19:57:35.256Z,14.95
2023-05-06T20:01:38.138Z,14.95
2023-05-06T20:05:42.326Z,14.94
2023-05-06T20:09:46.558Z,14.92
2023-05-06T20:13:49.397Z,14.89
2023-05-06T20:17:52.439Z,14.85
2023-05-06T20:21:56.674Z,14.83
2023-05-06T20:26:01.062Z,14.83
2023-05-06T20:30:04.262Z,14.85
2023-05-06T20:34:08.134Z,14.87
2023-05-06T20:38:11.240Z,14.91
2023-05-06T20:42:15.459Z,14.87
2023-05-06T20:46:18.639Z,14.83
2023-05-06T20:50:21.605Z,14.80
2023-05-06T20:54:24.585Z,14.68
2023-05-06T20:58:29.635Z,14.66
2023-05-06T21:02:35.820Z,14.68
2023-05-06T21:06:42.834Z,14.79
2023-05-06T21:10:46.043Z,14.70
2023-05-06T21:14:50.249Z,14.66
2023-05-06T21:18:53.084Z,14.63
2023-05-06T21:22:56.031Z,14.50
2023-05-06T21:26:58.933Z,14.41
2023-05-06T21:31:03.408Z,14.39
2023-05-06T21:35:07.082Z,14.42
2023-05-06T21:39:12.201Z,14.41
2023-05-06T21:43:17.847Z,14.35
2023-05-06T21:47:22.111Z,14.31
2023-05-06T21:51:27.341Z,14.27
2023-05-06T21:55:30.348Z,14.28
2023-05-06T21:59:33.195Z,14.29
2023-05-06T22:03:37.612Z,14.22
2023-05-06T22:07:40.553Z,14.24
2023-05-06T22:11:43.426Z,14.17
2023-05-06T22:15:46.342Z,14.25
2023-05-06T22:19:51.631Z,14.27
2023-05-06T22:23:55.003Z,14.31
2023-05-06T22:27:57.876Z,14.34
2023-05-06T22:32:00.839Z,14.37
2023-05-06T22:36:05.465Z,14.44
2023-05-06T22:40:09.331Z,14.45
2023-05-06T22:44:13.774Z,14.41
2023-05-06T22:48:16.688Z,14.34
2023-05-06T22:52:21.025Z,14.29
2023-05-06T22:56:23.887Z,14.29
2023-05-06T23:00:26.735Z,14.29
2023-05-06T23:04:29.920Z,14.33
2023-05-06T23:08:34.122Z,14.36
2023-05-06T23:12:37.389Z,14.41
2023-05-06T23:16:40.292Z,14.42
2023-05-06T23:20:43.328Z,14.43
2023-05-06T23:24:47.682Z,14.41
2023-05-06T23:28:50.509Z,14.37
2023-05-06T23:32:53.459Z,14.39
2023-05-06T23:36:56.622Z,14.31
2023-05-06T23:41:00.890Z,14.29
2023-05-06T23:45:03.778Z,14.27
2023-05-06T23:49:08.066Z,14.25
2023-05-06T23:53:11.229Z,14.24
2023-05-06T23:57:15.559Z,14.24
